Time;durP1;ratioP1;P1;durP2;ratioP2;P2;SDS_P1;SDS_P2;PMS_P1;PMS_P2;Temp;Humidity;BMP_temperature;BMP_pressure;BME280_temperature;BME280_humidity;BME280_pressure;Samples;Min_cycle;Max_cycle;Signal;HPM_P1;HPM_P2
2023/10/28 00:01:06;;;;;;;;;;;;;;;;;;5058575;28;19948;-79
2023/10/28 00:03:32;;;;;;;;;;;;;;;;;;5074577;28;19924;-78
2023/10/28 00:06:01;;;;;;;;;;;;;;;;;;5080421;28;19931;-78
2023/10/28 00:08:28;;;;;;;;;;;;;;;;;;5085677;28;19931;-78
2023/10/28 00:10:55;;;;;;;;;;;;;;;;;;5077606;28;20428;-78
2023/10/28 00:13:23;;;;;;;;;;;;;;;;;;5078766;28;19943;-77
2023/10/28 00:15:49;;;;;;;;;;;;;;;;;;5075299;28;19935;-78
2023/10/28 00:18:17;;;;;;;;;;;;;;;;;;5065714;28;21543;-79
2023/10/28 00:20:44;;;;;;;;;;;;;;;;;;5073839;28;19929;-80
2023/10/28 00:23:14;;;;;;;;;;;;;;;;;;5065042;28;19924;-78
2023/10/28 00:25:40;;;;;;;;;;;;;;;;;;5081596;28;19928;-78
2023/10/28 00:28:07;;;;;;;;;;;;;;;;;;5090389;28;19924;-80
2023/10/28 00:30:34;;;;;;;;;;;;;;;;;;5087658;28;19924;-81
2023/10/28 00:33:02;;;;;;;;;;;;;;;;;;5077867;28;19932;-81
2023/10/28 00:35:29;;;;;;;;;;;;;;;;;;5084835;28;19931;-81
2023/10/28 00:37:55;;;;;;;;;;;;;;;;;;5073560;28;19924;-80
2023/10/28 00:40:22;;;;;;;;;;;;;;;;;;5088171;28;19928;-80
2023/10/28 00:42:49;;;;;;;;;;;;;;;;;;5086579;28;20019;-80
2023/10/28 00:45:16;;;;;;;;;;;;;;;;;;5085569;28;20016;-80
2023/10/28 00:47:43;;;;;;;;;;;;;;;;;;5073301;28;20390;-79
2023/10/28 00:50:10;;;;;;;;;;;;;;;;;;5074108;28;19924;-81
2023/10/28 00:52:37;;;;;;;;;;;;;;;;;;5083905;28;19967;-80
2023/10/28 00:55:04;;;;;;;;;;;;;;;;;;5079670;28;19924;-80
2023/10/28 00:57:31;;;;;;;;;;;;;;;;;;5058813;28;19924;-79
2023/10/28 00:59:57;;;;;;;;;;;;;;;;;;5073970;28;20665;-79
2023/10/28 01:02:24;;;;;;;;;;;;;;;;;;5069727;28;19924;-80
2023/10/28 01:04:51;;;;;;;;;;;;;;;;;;5070854;28;19928;-81
2023/10/28 01:07:18;;;;;;;;;;;;;;;;;;5082721;28;20258;-81
2023/10/28 01:09:45;;;;;;;;;;;;;;;;;;5089796;28;19991;-81
2023/10/28 01:12:13;;;;;;;;;;;;;;;;;;5047201;28;20368;-81
2023/10/28 01:14:42;;;;;;;;;;;;;;;;;;5074558;28;19925;-80
2023/10/28 01:17:08;;;;;;;;;;;;;;;;;;5073553;28;20398;-79
2023/10/28 01:19:35;;;;;;;;;;;;;;;;;;5065806;28;19987;-80
2023/10/28 01:22:02;;;;;;;;;;;;;;;;;;5074918;28;19932;-80
2023/10/28 01:24:28;;;;;;;;;;;;;;;;;;5089730;28;19924;-81
2023/10/28 01:26:55;;;;;;;;;;;;;;;;;;5084788;28;19924;-80
2023/10/28 01:29:22;;;;;;;;;;;;;;;;;;5090232;28;19950;-79
2023/10/28 01:31:50;;;;;;;;;;;;;;;;;;5072556;28;19924;-81
2023/10/28 01:34:16;;;;;;;;;;;;;;;;;;5090693;28;19963;-79
2023/10/28 01:36:45;;;;;;;;;;;;;;;;;;5092201;28;20005;-81
2023/10/28 01:39:15;;;;;;;;;;;;;;;;;;5091491;28;19924;-80
2023/10/28 01:41:42;;;;;;;;;;;;;;;;;;5086797;28;19935;-80
2023/10/28 01:44:09;;;;;;;;;;;;;;;;;;5105382;28;19931;-81
2023/10/28 01:46:36;;;;;;;;;;;;;;;;;;5099356;28;19924;-80
2023/10/28 01:49:04;;;;;;;;;;;;;;;;;;5089259;28;19934;-81
2023/10/28 01:51:30;;;;;;;;;;;;;;;;;;5109688;27;19928;-79
2023/10/28 01:53:58;;;;;;;;;;;;;;;;;;5087783;28;19960;-81
2023/10/28 01:56:24;;;;;;;;;;;;;;;;;;5097779;28;20082;-81
2023/10/28 01:58:51;;;;;;;;;;;;;;;;;;5075943;28;19946;-79
2023/10/28 02:01:17;;;;;;;;;;;;;;;;;;5101369;28;19928;-79
2023/10/28 02:03:44;;;;;;;;;;;;;;;;;;5081844;28;19989;-82
2023/10/28 02:06:12;;;;;;;;;;;;;;;;;;5083531;28;19924;-81
2023/10/28 02:08:38;;;;;;;;;;;;;;;;;;5074755;28;19951;-80
2023/10/28 02:11:07;;;;;;;;;;;;;;;;;;5090638;28;20011;-79
2023/10/28 02:13:35;;;;;;;;;;;;;;;;;;5081537;28;20019;-80
2023/10/28 02:16:02;;;;;;;;;;;;;;;;;;5080909;28;19982;-82
2023/10/28 02:18:29;;;;;;;;;;;;;;;;;;5084866;28;19964;-81
2023/10/28 02:20:55;;;;;;;;;;;;;;;;;;5087167;28;20007;-81
2023/10/28 02:23:22;;;;;;;;;;;;;;;;;;5082795;28;19924;-81
2023/10/28 02:25:48;;;;;;;;;;;;;;;;;;5077469;28;19929;-81
2023/10/28 02:28:15;;;;;;;;;;;;;;;;;;5073838;28;19924;-81
2023/10/28 02:30:41;;;;;;;;;;;;;;;;;;5082313;28;19985;-79
2023/10/28 02:33:08;;;;;;;;;;;;;;;;;;5084957;28;19973;-81
2023/10/28 02:35:38;;;;;;;;;;;;;;;;;;5060819;28;20186;-81
2023/10/28 02:38:04;;;;;;;;;;;;;;;;;;5084802;28;20023;-81
2023/10/28 02:40:31;;;;;;;;;;;;;;;;;;5066335;28;19930;-80
2023/10/28 02:42:57;;;;;;;;;;;;;;;;;;5080771;28;20305;-81
2023/10/28 02:45:24;;;;;;;;;;;;;;;;;;5035094;28;19931;-80
2023/10/28 02:47:53;;;;;;;;;;;;;;;;;;5062295;28;19931;-80
2023/10/28 02:50:20;;;;;;;;;;;;;;;;;;5073886;28;19928;-80
2023/10/28 02:52:47;;;;;;;;;;;;;;;;;;5089916;28;20377;-81
2023/10/28 02:55:15;;;;;;;;;;;;;;;;;;5087646;28;19929;-82
2023/10/28 02:57:42;;;;;;;;;;;;;;;;;;5061023;28;20247;-80
2023/10/28 03:00:08;;;;;;;;;;;;;;;;;;5065298;28;20023;-80
2023/10/28 03:02:35;;;;;;;;;;;;;;;;;;5086465;28;19924;-81
2023/10/28 03:05:04;;;;;;;;;;;;;;;;;;5068638;28;19932;-81
2023/10/28 03:07:31;;;;;;;;;;;;;;;;;;5045371;28;19924;-81
2023/10/28 03:10:01;;;;;;;;;;;;;;;;;;5106039;27;19946;-80
2023/10/28 03:12:28;;;;;;;;;;;;;;;;;;5073676;28;20450;-80
2023/10/28 03:14:55;;;;;;;;;;;;;;;;;;5057421;28;19928;-81
2023/10/28 03:17:22;;;;;;;;;;;;;;;;;;5074829;28;19932;-80
2023/10/28 03:19:48;;;;;;;;;;;;;;;;;;5077645;28;19932;-80
2023/10/28 03:22:15;;;;;;;;;;;;;;;;;;5066373;28;19939;-81
2023/10/28 03:24:42;;;;;;;;;;;;;;;;;;5081830;28;20388;-81
2023/10/28 03:27:08;;;;;;;;;;;;;;;;;;5079487;28;19959;-81
2023/10/28 03:29:35;;;;;;;;;;;;;;;;;;5072147;28;19932;-81
2023/10/28 03:32:02;;;;;;;;;;;;;;;;;;5073402;28;19931;-81
2023/10/28 03:34:28;;;;;;;;;;;;;;;;;;5080511;28;19924;-81
2023/10/28 03:36:55;;;;;;;;;;;;;;;;;;5069878;28;19938;-80
2023/10/28 03:39:22;;;;;;;;;;;;;;;;;;5095491;28;19928;-80
2023/10/28 03:41:49;;;;;;;;;;;;;;;;;;5038010;28;19994;-80
2023/10/28 03:44:20;;;;;;;;;;;;;;;;;;5059891;28;19948;-81
2023/10/28 03:46:46;;;;;;;;;;;;;;;;;;5081979;28;19924;-81
2023/10/28 03:49:14;;;;;;;;;;;;;;;;;;5079056;28;19924;-80
2023/10/28 03:51:40;;;;;;;;;;;;;;;;;;5102028;28;20349;-81
2023/10/28 03:54:07;;;;;;;;;;;;;;;;;;5078584;28;19950;-81
2023/10/28 03:56:35;;;;;;;;;;;;;;;;;;5081074;28;19930;-78
2023/10/28 03:59:02;;;;;;;;;;;;;;;;;;5074055;28;19974;-81
2023/10/28 04:01:29;;;;;;;;;;;;;;;;;;5065754;28;20450;-82
2023/10/28 04:03:56;;;;;;;;;;;;;;;;;;5071399;28;19978;-79
2023/10/28 04:06:23;;;;;;;;;;;;;;;;;;5072252;28;19928;-79
2023/10/28 04:08:49;;;;;;;;;;;;;;;;;;5075697;28;19925;-80
2023/10/28 04:11:16;;;;;;;;;;;;;;;;;;5084241;28;19924;-81
2023/10/28 04:13:48;;;;;;;;;;;;;;;;;;5068667;28;20349;-80
2023/10/28 04:16:14;;;;;;;;;;;;;;;;;;5084908;28;20182;-80
2023/10/28 04:18:41;;;;;;;;;;;;;;;;;;5065216;28;20391;-81
2023/10/28 04:21:08;;;;;;;;;;;;;;;;;;5075106;28;19925;-81
2023/10/28 04:23:35;;;;;;;;;;;;;;;;;;5080863;28;19932;-82
2023/10/28 04:26:03;;;;;;;;;;;;;;;;;;5081635;28;20030;-82
2023/10/28 04:28:30;;;;;;;;;;;;;;;;;;5060764;28;20165;-81
2023/10/28 04:30:58;;;;;;;;;;;;;;;;;;5078764;28;19925;-81
2023/10/28 04:33:26;;;;;;;;;;;;;;;;;;5082919;28;19936;-80
2023/10/28 04:35:53;;;;;;;;;;;;;;;;;;5079433;28;19924;-79
2023/10/28 04:38:19;;;;;;;;;;;;;;;;;;5073752;28;19960;-80
2023/10/28 04:40:46;;;;;;;;;;;;;;;;;;5063043;28;19924;-81
2023/10/28 04:43:16;;;;;;;;;;;;;;;;;;5082234;28;19924;-81
2023/10/28 04:45:43;;;;;;;;;;;;;;;;;;5074009;28;20027;-82
2023/10/28 04:48:14;;;;;;;;;;;;;;;;;;5071672;28;19932;-81
2023/10/28 04:50:43;;;;;;;;;;;;;;;;;;5051824;28;19931;-81
2023/10/28 04:53:10;;;;;;;;;;;;;;;;;;5077711;28;20334;-82
2023/10/28 04:55:37;;;;;;;;;;;;;;;;;;5075459;28;19924;-81
2023/10/28 04:58:05;;;;;;;;;;;;;;;;;;5043928;28;19928;-79
2023/10/28 05:00:32;;;;;;;;;;;;;;;;;;5082004;28;20366;-80
2023/10/28 05:02:59;;;;;;;;;;;;;;;;;;5049725;28;21388;-79
2023/10/28 05:05:26;;;;;;;;;;;;;;;;;;5059546;28;20295;-78
2023/10/28 05:07:53;;;;;;;;;;;;;;;;;;5085117;28;19931;-80
2023/10/28 05:10:21;;;;;;;;;;;;;;;;;;5086866;28;19924;-78
2023/10/28 05:12:47;;;;;;;;;;;;;;;;;;5075141;28;19932;-79
2023/10/28 05:15:14;;;;;;;;;;;;;;;;;;5077319;28;20015;-79
2023/10/28 05:17:40;;;;;;;;;;;;;;;;;;5099666;28;20322;-78
2023/10/28 05:20:08;;;;;;;;;;;;;;;;;;5077854;28;19925;-80
2023/10/28 05:22:35;;;;;;;;;;;;;;;;;;5076029;28;19932;-78
2023/10/28 05:25:03;;;;;;;;;;;;;;;;;;5079919;28;19924;-79
2023/10/28 05:27:32;;;;;;;;;;;;;;;;;;5077454;28;19931;-82
2023/10/28 05:29:59;;;;;;;;;;;;;;;;;;5074056;28;19984;-79
2023/10/28 05:32:26;;;;;;;;;;;;;;;;;;5085663;28;19924;-80
2023/10/28 05:34:52;;;;;;;;;;;;;;;;;;5081721;28;19963;-81
2023/10/28 05:37:19;;;;;;;;;;;;;;;;;;5089821;28;19931;-80
2023/10/28 05:39:46;;;;;;;;;;;;;;;;;;5088661;28;20406;-81
2023/10/28 05:42:16;;;;;;;;;;;;;;;;;;5084970;28;19974;-80
2023/10/28 05:44:43;;;;;;;;;;;;;;;;;;5078984;28;19931;-81
2023/10/28 05:47:11;;;;;;;;;;;;;;;;;;5079366;28;19994;-80
2023/10/28 05:49:38;;;;;;;;;;;;;;;;;;5077116;28;19931;-80
2023/10/28 05:52:05;;;;;;;;;;;;;;;;;;5080508;28;19940;-80
2023/10/28 05:54:32;;;;;;;;;;;;;;;;;;5083922;28;19996;-81
2023/10/28 05:56:59;;;;;;;;;;;;;;;;;;5078919;28;19931;-81
2023/10/28 05:59:25;;;;;;;;;;;;;;;;;;5064020;28;19924;-80
2023/10/28 06:01:52;;;;;;;;;;;;;;;;;;5058380;28;20343;-80
2023/10/28 06:04:21;;;;;;;;;;;;;;;;;;5080369;28;19925;-81
2023/10/28 06:06:48;;;;;;;;;;;;;;;;;;5091533;28;19924;-78
2023/10/28 06:09:20;;;;;;;;;;;;;;;;;;5099252;28;20522;-79
2023/10/28 06:11:47;;;;;;;;;;;;;;;;;;5100282;28;19928;-80
2023/10/28 06:14:14;;;;;;;;;;;;;;;;;;5059934;28;19960;-80
2023/10/28 06:16:40;;;;;;;;;;;;;;;;;;5076047;28;19943;-80
2023/10/28 06:19:07;;;;;;;;;;;;;;;;;;5066198;28;19924;-79
2023/10/28 06:21:34;;;;;;;;;;;;;;;;;;5089959;28;19924;-79
2023/10/28 06:24:00;;;;;;;;;;;;;;;;;;5104580;28;19991;-78
2023/10/28 06:26:29;;;;;;;;;;;;;;;;;;5091128;28;19942;-78
2023/10/28 06:28:57;;;;;;;;;;;;;;;;;;5091186;28;19920;-79
2023/10/28 06:31:23;;;;;;;;;;;;;;;;;;5089665;28;19912;-78
2023/10/28 06:33:50;;;;;;;;;;;;;;;;;;5098103;28;19959;-78
2023/10/28 06:36:18;;;;;;;;;;;;;;;;;;5096284;28;19956;-78
2023/10/28 06:38:45;;;;;;;;;;;;;;;;;;5091376;28;19924;-76
2023/10/28 06:41:12;;;;;;;;;;;;;;;;;;5070474;28;19985;-78
2023/10/28 06:43:40;;;;;;;;;;;;;;;;;;5095904;28;19924;-78
2023/10/28 06:46:06;;;;;;;;;;;;;;;;;;5072580;28;20209;-78
2023/10/28 06:48:33;;;;;;;;;;;;;;;;;;5081195;28;19956;-78
2023/10/28 06:51:00;;;;;;;;;;;;;;;;;;5080000;28;20007;-78
2023/10/28 06:53:26;;;;;;;;;;;;;;;;;;5075053;28;19928;-78
2023/10/28 06:55:54;;;;;;;;;;;;;;;;;;5077667;28;19975;-78
2023/10/28 06:58:21;;;;;;;;;;;;;;;;;;5072929;28;19924;-77
2023/10/28 07:00:47;;;;;;;;;;;;;;;;;;5084134;28;19924;-78
2023/10/28 07:03:17;;;;;;;;;;;;;;;;;;5099415;28;19928;-79
2023/10/28 07:05:45;;;;;;;;;;;;;;;;;;5082693;28;19944;-79
2023/10/28 07:08:12;;;;;;;;;;;;;;;;;;5085816;28;19935;-79
2023/10/28 07:10:39;;;;;;;;;;;;;;;;;;5075753;28;19924;-78
2023/10/28 07:13:05;;;;;;;;;;;;;;;;;;5083266;28;19946;-80
2023/10/28 07:15:32;;;;;;;;;;;;;;;;;;5079221;28;19925;-79
2023/10/28 07:17:58;;;;;;;;;;;;;;;;;;5078681;28;20017;-81
2023/10/28 07:20:25;;;;;;;;;;;;;;;;;;5085543;28;20412;-80
2023/10/28 07:22:54;;;;;;;;;;;;;;;;;;5081859;28;19973;-80
2023/10/28 07:25:21;;;;;;;;;;;;;;;;;;5083523;28;19924;-81
2023/10/28 07:27:47;;;;;;;;;;;;;;;;;;5072752;28;19925;-81
2023/10/28 07:30:14;;;;;;;;;;;;;;;;;;5075285;28;20394;-78
2023/10/28 07:32:41;;;;;;;;;;;;;;;;;;5077761;28;19925;-78
2023/10/28 07:35:11;;;;;;;;;;;;;;;;;;5059134;28;19925;-79
2023/10/28 07:37:38;;;;;;;;;;;;;;;;;;5071219;28;19954;-76
2023/10/28 07:40:04;;;;;;;;;;;;;;;;;;5084296;28;19924;-78
2023/10/28 07:42:31;;;;;;;;;;;;;;;;;;5094924;28;20016;-78
2023/10/28 07:44:58;;;;;;;;;;;;;;;;;;5093157;28;19934;-77
2023/10/28 07:47:24;;;;;;;;;;;;;;;;;;5054558;28;19932;-78
2023/10/28 07:49:52;;;;;;;;;;;;;;;;;;5085126;28;19936;-79
2023/10/28 07:52:19;;;;;;;;;;;;;;;;;;5054809;28;19978;-79
2023/10/28 07:54:45;;;;;;;;;;;;;;;;;;5073720;28;20182;-79
2023/10/28 07:57:13;;;;;;;;;;;;;;;;;;5050641;28;19931;-79
2023/10/28 07:59:40;;;;;;;;;;;;;;;;;;5061536;28;19928;-77
2023/10/28 08:02:07;;;;;;;;;;;;;;;;;;5062987;28;19925;-79
2023/10/28 08:04:36;;;;;;;;;;;;;;;;;;5102027;28;20382;-78
2023/10/28 08:07:03;;;;;;;;;;;;;;;;;;5075059;28;20261;-76
2023/10/28 08:09:30;;;;;;;;;;;;;;;;;;5081988;28;20341;-78
2023/10/28 08:11:56;;;;;;;;;;;;;;;;;;5080264;28;20162;-78
2023/10/28 08:14:23;;;;;;;;;;;;;;;;;;5078173;28;19924;-78
2023/10/28 08:16:52;;;;;;;;;;;;;;;;;;5080253;28;19967;-78
2023/10/28 08:19:19;;;;;;;;;;;;;;;;;;5070168;28;20295;-79
2023/10/28 08:21:47;;;;;;;;;;;;;;;;;;5082387;28;19931;-78
2023/10/28 08:24:15;;;;;;;;;;;;;;;;;;5081725;28;19924;-78
2023/10/28 08:26:42;;;;;;;;;;;;;;;;;;5076483;28;20030;-79
2023/10/28 08:29:11;;;;;;;;;;;;;;;;;;5057249;28;19924;-78
2023/10/28 08:31:38;;;;;;;;;;;;;;;;;;5087155;28;19924;-78
2023/10/28 08:34:06;;;;;;;;;;;;;;;;;;5074100;28;19939;-79
2023/10/28 08:36:33;;;;;;;;;;;;;;;;;;5082672;28;19931;-78
2023/10/28 08:39:00;;;;;;;;;;;;;;;;;;5076072;28;20275;-79
2023/10/28 08:41:26;;;;;;;;;;;;;;;;;;5080607;28;19963;-79
2023/10/28 08:43:53;;;;;;;;;;;;;;;;;;5073363;28;19924;-79
2023/10/28 08:46:21;;;;;;;;;;;;;;;;;;5085058;28;20265;-78
2023/10/28 08:48:48;;;;;;;;;;;;;;;;;;5091674;28;19928;-79
2023/10/28 08:51:19;;;;;;;;;;;;;;;;;;5089802;28;20350;-79
2023/10/28 08:53:46;;;;;;;;;;;;;;;;;;5078113;28;20420;-80
2023/10/28 08:56:13;;;;;;;;;;;;;;;;;;5074884;28;20398;-79
2023/10/28 08:58:40;;;;;;;;;;;;;;;;;;5074764;28;19986;-78
2023/10/28 09:01:08;;;;;;;;;;;;;;;;;;5082648;28;19959;-78
2023/10/28 09:03:34;;;;;;;;;;;;;;;;;;5085237;28;19932;-79
2023/10/28 09:06:01;;;;;;;;;;;;;;;;;;5080051;28;19924;-79
2023/10/28 09:08:28;;;;;;;;;;;;;;;;;;5075332;28;19928;-79
2023/10/28 09:10:56;;;;;;;;;;;;;;;;;;5080022;28;19924;-79
2023/10/28 09:13:23;;;;;;;;;;;;;;;;;;5079028;28;19978;-80
2023/10/28 09:15:51;;;;;;;;;;;;;;;;;;5076899;28;20201;-79
2023/10/28 09:18:18;;;;;;;;;;;;;;;;;;5083144;28;19959;-80
2023/10/28 09:20:44;;;;;;;;;;;;;;;;;;5088487;28;20317;-79
2023/10/28 09:23:11;;;;;;;;;;;;;;;;;;5076758;28;19936;-79
2023/10/28 09:25:38;;;;;;;;;;;;;;;;;;5064214;28;19924;-79
2023/10/28 09:28:07;;;;;;;;;;;;;;;;;;5082308;28;19977;-79
2023/10/28 09:30:34;;;;;;;;;;;;;;;;;;5074800;28;19935;-79
2023/10/28 09:33:01;;;;;;;;;;;;;;;;;;5078405;28;19938;-79
2023/10/28 09:35:28;;;;;;;;;;;;;;;;;;5089844;27;20325;-79
2023/10/28 09:37:55;;;;;;;;;;;;;;;;;;5083231;28;20387;-80
2023/10/28 09:40:22;;;;;;;;;;;;;;;;;;5073015;28;19929;-80
2023/10/28 09:42:49;;;;;;;;;;;;;;;;;;5068704;28;19933;-79
2023/10/28 09:45:16;;;;;;;;;;;;;;;;;;5072494;28;20432;-81
2023/10/28 09:47:43;;;;;;;;;;;;;;;;;;5075003;28;19959;-73
2023/10/28 09:50:09;;;;;;;;;;;;;;;;;;5079470;28;19936;-81
2023/10/28 09:52:36;;;;;;;;;;;;;;;;;;5095629;28;19960;-80
2023/10/28 09:55:07;;;;;;;;;;;;;;;;;;5065117;28;19928;-79
2023/10/28 09:57:34;;;;;;;;;;;;;;;;;;5069888;28;19924;-79
2023/10/28 10:00:00;;;;;;;;;;;;;;;;;;5073106;28;20583;-80
2023/10/28 10:02:37;;;;;;;;;;;;;;;;;;5073649;28;20287;-80
2023/10/28 10:05:04;;;;;;;;;;;;;;;;;;5080470;28;19931;-80
2023/10/28 10:07:31;;;;;;;;;;;;;;;;;;5081535;28;19975;-78
2023/10/28 10:09:57;;;;;;;;;;;;;;;;;;5078733;28;20403;-80
2023/10/28 10:12:24;;;;;;;;;;;;;;;;;;5066537;28;19932;-79
2023/10/28 10:14:50;;;;;;;;;;;;;;;;;;5064599;28;20236;-79
2023/10/28 10:17:17;;;;;;;;;;;;;;;;;;5075658;28;19928;-81
2023/10/28 10:19:44;;;;;;;;;;;;;;;;;;5070688;28;19932;-80
2023/10/28 10:22:11;;;;;;;;;;;;;;;;;;5075619;28;19932;-78
2023/10/28 10:24:40;;;;;;;;;;;;;;;;;;5083628;28;19928;-77
2023/10/28 10:27:06;;;;;;;;;;;;;;;;;;5072922;28;19952;-79
2023/10/28 10:29:33;;;;;;;;;;;;;;;;;;5072980;28;20385;-79
2023/10/28 10:32:02;;;;;;;;;;;;;;;;;;5074584;28;19926;-81
2023/10/28 10:34:28;;;;;;;;;;;;;;;;;;5068730;28;19933;-80
2023/10/28 10:36:55;;;;;;;;;;;;;;;;;;5079340;28;20404;-81
2023/10/28 10:39:21;;;;;;;;;;;;;;;;;;5069535;28;19948;-79
2023/10/28 10:41:55;;;;;;;;;;;;;;;;;;5084084;28;19932;-79
2023/10/28 10:44:25;;;;;;;;;;;;;;;;;;5067950;28;19982;-81
2023/10/28 10:46:52;;;;;;;;;;;;;;;;;;5073109;28;20417;-80
2023/10/28 10:49:18;;;;;;;;;;;;;;;;;;5070983;28;19928;-78
2023/10/28 10:51:45;;;;;;;;;;;;;;;;;;5074576;28;20009;-80
2023/10/28 10:54:11;;;;;;;;;;;;;;;;;;5071728;28;20195;-80
2023/10/28 10:56:38;;;;;;;;;;;;;;;;;;5090236;28;19927;-81
2023/10/28 10:59:07;;;;;;;;;;;;;;;;;;5079632;28;19928;-80
2023/10/28 11:01:35;;;;;;;;;;;;;;;;;;5093190;28;19928;-79
2023/10/28 11:04:02;;;;;;;;;;;;;;;;;;5094246;28;19927;-80
2023/10/28 11:06:29;;;;;;;;;;;;;;;;;;5082672;28;19938;-80
2023/10/28 11:08:57;;;;;;;;;;;;;;;;;;5084754;28;19966;-80
2023/10/28 11:11:25;;;;;;;;;;;;;;;;;;5084890;28;19929;-80
2023/10/28 11:13:51;;;;;;;;;;;;;;;;;;5087859;28;19928;-81
2023/10/28 11:16:19;;;;;;;;;;;;;;;;;;5083025;28;20003;-81
2023/10/28 11:18:45;;;;;;;;;;;;;;;;;;5069907;28;19928;-79
2023/10/28 11:21:12;;;;;;;;;;;;;;;;;;5082790;28;19935;-78
2023/10/28 11:23:41;;;;;;;;;;;;;;;;;;5070532;28;20465;-79
2023/10/28 11:26:09;;;;;;;;;;;;;;;;;;5087310;28;19927;-79
2023/10/28 11:28:38;;;;;;;;;;;;;;;;;;5078180;28;19928;-80
2023/10/28 11:31:08;;;;;;;;;;;;;;;;;;5053599;28;19928;-80
2023/10/28 11:33:35;;;;;;;;;;;;;;;;;;5069802;28;19925;-79
2023/10/28 11:36:04;;;;;;;;;;;;;;;;;;5065644;28;19936;-77
2023/10/28 11:38:34;;;;;;;;;;;;;;;;;;5069071;28;19928;-78
2023/10/28 11:41:00;;;;;;;;;;;;;;;;;;5068368;28;19938;-81
2023/10/28 11:43:27;;;;;;;;;;;;;;;;;;5079951;28;19928;-79
2023/10/28 11:45:53;;;;;;;;;;;;;;;;;;5066616;28;19988;-79
2023/10/28 11:48:21;;;;;;;;;;;;;;;;;;5079732;28;19967;-78
2023/10/28 11:50:50;;;;;;;;;;;;;;;;;;5077565;28;19977;-79
2023/10/28 11:53:17;;;;;;;;;;;;;;;;;;5069162;28;20235;-79
2023/10/28 11:55:45;;;;;;;;;;;;;;;;;;5071480;28;19928;-79
2023/10/28 11:58:11;;;;;;;;;;;;;;;;;;5072560;28;19928;-79
2023/10/28 12:00:38;;;;;;;;;;;;;;;;;;5076479;28;19936;-78
2023/10/28 12:03:04;;;;;;;;;;;;;;;;;;5075240;28;19955;-79
2023/10/28 12:05:31;;;;;;;;;;;;;;;;;;5074285;28;19971;-79
2023/10/28 12:08:04;;;;;;;;;;;;;;;;;;5069529;28;19940;-78
2023/10/28 12:10:30;;;;;;;;;;;;;;;;;;5072470;28;19912;-79
2023/10/28 12:13:00;;;;;;;;;;;;;;;;;;5093432;28;20215;-78
2023/10/28 12:15:27;;;;;;;;;;;;;;;;;;5089865;28;19938;-77
2023/10/28 12:17:53;;;;;;;;;;;;;;;;;;5113148;28;20167;-77
2023/10/28 12:20:20;;;;;;;;;;;;;;;;;;5095920;28;19952;-77
2023/10/28 12:22:47;;;;;;;;;;;;;;;;;;5095925;28;19999;-77
2023/10/28 12:25:18;;;;;;;;;;;;;;;;;;5072369;28;19928;-78
2023/10/28 12:27:44;;;;;;;;;;;;;;;;;;5092306;28;19963;-78
2023/10/28 12:30:11;;;;;;;;;;;;;;;;;;5081672;28;20504;-78
2023/10/28 12:32:37;;;;;;;;;;;;;;;;;;5061745;28;20054;-78
2023/10/28 12:35:04;;;;;;;;;;;;;;;;;;5072206;28;19986;-79
2023/10/28 12:37:31;;;;;;;;;;;;;;;;;;5076082;28;20020;-81
2023/10/28 12:39:57;;;;;;;;;;;;;;;;;;5077390;28;19950;-81
2023/10/28 12:42:27;;;;;;;;;;;;;;;;;;5089772;28;19928;-81
2023/10/28 12:44:54;;;;;;;;;;;;;;;;;;5055542;28;19932;-80
2023/10/28 12:47:20;;;;;;;;;;;;;;;;;;5073226;28;19934;-80
2023/10/28 12:49:47;;;;;;;;;;;;;;;;;;5071020;28;19932;-80
2023/10/28 12:52:13;;;;;;;;;;;;;;;;;;5066901;28;19928;-82
2023/10/28 12:54:43;;;;;;;;;;;;;;;;;;5069574;28;19932;-81
2023/10/28 12:57:11;;;;;;;;;;;;;;;;;;5064426;28;19935;-79
2023/10/28 12:59:38;;;;;;;;;;;;;;;;;;5070525;28;20191;-79
2023/10/28 13:02:05;;;;;;;;;;;;;;;;;;5076935;28;19963;-80
2023/10/28 13:04:31;;;;;;;;;;;;;;;;;;5100207;27;20023;-79
2023/10/28 13:06:59;;;;;;;;;;;;;;;;;;5087790;28;19928;-79
2023/10/28 13:09:26;;;;;;;;;;;;;;;;;;5078154;28;19977;-79
2023/10/28 13:11:56;;;;;;;;;;;;;;;;;;5059844;28;19928;-79
2023/10/28 13:14:22;;;;;;;;;;;;;;;;;;5075358;28;19951;-79
2023/10/28 13:16:49;;;;;;;;;;;;;;;;;;5075099;28;19929;-79
2023/10/28 13:19:17;;;;;;;;;;;;;;;;;;5073853;28;19939;-80
2023/10/28 13:21:45;;;;;;;;;;;;;;;;;;5066013;28;20309;-80
2023/10/28 13:24:11;;;;;;;;;;;;;;;;;;5064196;28;19983;-80
2023/10/28 13:26:38;;;;;;;;;;;;;;;;;;5066559;28;19936;-79
2023/10/28 13:29:09;;;;;;;;;;;;;;;;;;5086462;28;19928;-79
2023/10/28 13:31:35;;;;;;;;;;;;;;;;;;5099770;28;19949;-79
2023/10/28 13:34:04;;;;;;;;;;;;;;;;;;5068614;28;20693;-80
2023/10/28 13:36:32;;;;;;;;;;;;;;;;;;5080145;28;19967;-79
2023/10/28 13:38:58;;;;;;;;;;;;;;;;;;5094520;28;19928;-80
2023/10/28 13:41:28;;;;;;;;;;;;;;;;;;5051547;28;19987;-80
2023/10/28 13:43:55;;;;;;;;;;;;;;;;;;5072671;28;19998;-79
2023/10/28 13:46:22;;;;;;;;;;;;;;;;;;5069328;28;20032;-79
2023/10/28 13:48:48;;;;;;;;;;;;;;;;;;5068127;28;19947;-79
2023/10/28 13:51:15;;;;;;;;;;;;;;;;;;5066002;28;20620;-80
2023/10/28 13:53:44;;;;;;;;;;;;;;;;;;5081796;28;19928;-81
2023/10/28 13:56:11;;;;;;;;;;;;;;;;;;5049663;28;19928;-81
2023/10/28 13:58:39;;;;;;;;;;;;;;;;;;5050361;28;20562;-81
2023/10/28 14:01:06;;;;;;;;;;;;;;;;;;5070490;28;19928;-81
2023/10/28 14:03:33;;;;;;;;;;;;;;;;;;5071408;28;19930;-79
2023/10/28 14:06:00;;;;;;;;;;;;;;;;;;5068185;28;19986;-81
2023/10/28 14:08:27;;;;;;;;;;;;;;;;;;5071867;28;19928;-80
2023/10/28 14:10:57;;;;;;;;;;;;;;;;;;5087003;28;19936;-79
2023/10/28 14:13:30;;;;;;;;;;;;;;;;;;5069095;28;20361;-78
2023/10/28 14:15:56;;;;;;;;;;;;;;;;;;5069967;28;19988;-76
2023/10/28 14:18:23;;;;;;;;;;;;;;;;;;5064765;28;19932;-78
2023/10/28 14:20:51;;;;;;;;;;;;;;;;;;5080203;28;20504;-78
2023/10/28 14:23:24;;;;;;;;;;;;;;;;;;5047329;28;19928;-76
2023/10/28 14:25:51;;;;;;;;;;;;;;;;;;5064329;28;20451;-77
2023/10/28 14:28:18;;;;;;;;;;;;;;;;;;5089624;28;19962;-77
2023/10/28 14:30:46;;;;;;;;;;;;;;;;;;5063123;28;19928;-77
2023/10/28 14:33:12;;;;;;;;;;;;;;;;;;5073480;28;19928;-77
2023/10/28 14:35:39;;;;;;;;;;;;;;;;;;5069334;28;20298;-77
2023/10/28 14:38:06;;;;;;;;;;;;;;;;;;5076329;28;19943;-78
2023/10/28 14:40:34;;;;;;;;;;;;;;;;;;5067429;28;19929;-77
2023/10/28 14:43:00;;;;;;;;;;;;;;;;;;5073694;28;19955;-77
2023/10/28 14:45:27;;;;;;;;;;;;;;;;;;5068501;28;20472;-78
2023/10/28 14:47:54;;;;;;;;;;;;;;;;;;5066262;28;19947;-77
2023/10/28 14:50:20;;;;;;;;;;;;;;;;;;5069102;28;19924;-77
2023/10/28 14:52:47;;;;;;;;;;;;;;;;;;5070236;28;20439;-77
2023/10/28 14:55:14;;;;;;;;;;;;;;;;;;5066219;28;19951;-77
2023/10/28 14:57:42;;;;;;;;;;;;;;;;;;5069438;28;19943;-76
2023/10/28 15:00:24;;;;;;;;;;;;;;;;;;5063054;28;20357;-77
2023/10/28 15:02:50;;;;;;;;;;;;;;;;;;5071070;28;19928;-77
2023/10/28 15:05:17;;;;;;;;;;;;;;;;;;5064690;28;19928;-77
2023/10/28 15:07:43;;;;;;;;;;;;;;;;;;5064178;28;19928;-77
2023/10/28 15:10:10;;;;;;;;;;;;;;;;;;5064412;28;19928;-78
2023/10/28 15:12:38;;;;;;;;;;;;;;;;;;5071358;28;19935;-77
2023/10/28 15:15:04;;;;;;;;;;;;;;;;;;5072700;28;21668;-77
2023/10/28 15:17:31;;;;;;;;;;;;;;;;;;5070009;28;19928;-77
2023/10/28 15:19:58;;;;;;;;;;;;;;;;;;5068341;28;19950;-77
2023/10/28 15:22:24;;;;;;;;;;;;;;;;;;5065035;28;19924;-77
2023/10/28 15:24:51;;;;;;;;;;;;;;;;;;5054150;28;19951;-77
2023/10/28 15:27:18;;;;;;;;;;;;;;;;;;5048302;28;19924;-76
2023/10/28 15:29:44;;;;;;;;;;;;;;;;;;5071492;28;20294;-80
2023/10/28 15:32:11;;;;;;;;;;;;;;;;;;5066759;28;19928;-75
2023/10/28 15:34:42;;;;;;;;;;;;;;;;;;5074338;28;19928;-75
2023/10/28 15:37:09;;;;;;;;;;;;;;;;;;5065073;28;20424;-74
2023/10/28 15:39:35;;;;;;;;;;;;;;;;;;5067046;28;19932;-76
2023/10/28 15:42:04;;;;;;;;;;;;;;;;;;5081616;28;20641;-76
2023/10/28 15:44:31;;;;;;;;;;;;;;;;;;5066662;28;19960;-76
2023/10/28 15:46:58;;;;;;;;;;;;;;;;;;5064919;28;19951;-76
2023/10/28 15:49:24;;;;;;;;;;;;;;;;;;5065271;28;19978;-76
2023/10/28 15:51:51;;;;;;;;;;;;;;;;;;5065950;28;19998;-74
2023/10/28 15:54:17;;;;;;;;;;;;;;;;;;5071669;28;19929;-76
2023/10/28 15:56:44;;;;;;;;;;;;;;;;;;5073530;28;19932;-76
2023/10/28 15:59:10;;;;;;;;;;;;;;;;;;5106985;27;19931;-76
2023/10/28 16:01:37;;;;;;;;;;;;;;;;;;5065949;28;20420;-76
2023/10/28 16:04:04;;;;;;;;;;;;;;;;;;5064697;28;19955;-76
2023/10/28 16:06:31;;;;;;;;;;;;;;;;;;5071012;28;19924;-76
2023/10/28 16:08:58;;;;;;;;;;;;;;;;;;5072693;28;20015;-75
2023/10/28 16:11:31;;;;;;;;;;;;;;;;;;5048641;28;19924;-75
2023/10/28 16:13:58;;;;;;;;;;;;;;;;;;5067725;28;19932;-76
2023/10/28 16:16:24;;;;;;;;;;;;;;;;;;5070299;28;20020;-76
2023/10/28 16:18:51;;;;;;;;;;;;;;;;;;5070685;28;19939;-76
2023/10/28 16:21:17;;;;;;;;;;;;;;;;;;5072212;28;19930;-75
2023/10/28 16:23:46;;;;;;;;;;;;;;;;;;5064022;28;19924;-75
2023/10/28 16:26:12;;;;;;;;;;;;;;;;;;5071752;28;20384;-75
2023/10/28 16:28:40;;;;;;;;;;;;;;;;;;5072056;28;20390;-75
2023/10/28 16:31:07;;;;;;;;;;;;;;;;;;5064431;28;20367;-75
2023/10/28 16:33:34;;;;;;;;;;;;;;;;;;5072102;28;19951;-75
2023/10/28 16:36:00;;;;;;;;;;;;;;;;;;5063777;28;19924;-75
2023/10/28 16:38:27;;;;;;;;;;;;;;;;;;5070348;28;19981;-75
2023/10/28 16:40:57;;;;;;;;;;;;;;;;;;5099651;28;20316;-75
2023/10/28 16:43:25;;;;;;;;;;;;;;;;;;5075536;28;19943;-75
2023/10/28 16:45:52;;;;;;;;;;;;;;;;;;5053589;28;19932;-75